sensor_id;sensor_type;location;lat;lon;timestamp;P1;durP1;ratioP1;P2;durP2;ratioP2
18780;SDS011;9519;51.890;8.970;2022-12-18T00:03:22;27.17;;;15.50;;
18780;SDS011;9519;51.890;8.970;2022-12-18T00:08:24;27.73;;;15.87;;
18780;SDS011;9519;51.890;8.970;2022-12-18T00:13:28;31.63;;;16.97;;
18780;SDS011;9519;51.890;8.970;2022-12-18T00:18:30;31.40;;;18.50;;
18780;SDS011;9519;51.890;8.970;2022-12-18T00:23:33;29.63;;;17.23;;
18780;SDS011;9519;51.890;8.970;2022-12-18T00:28:39;31.10;;;15.93;;
18780;SDS011;9519;51.890;8.970;2022-12-18T00:33:41;29.40;;;15.37;;
18780;SDS011;9519;51.890;8.970;2022-12-18T00:38:44;28.70;;;15.43;;
18780;SDS011;9519;51.890;8.970;2022-12-18T00:43:49;31.60;;;18.70;;
18780;SDS011;9519;51.890;8.970;2022-12-18T00:48:51;30.37;;;17.27;;
18780;SDS011;9519;51.890;8.970;2022-12-18T00:53:53;30.77;;;18.17;;
18780;SDS011;9519;51.890;8.970;2022-12-18T00:58:57;27.37;;;14.93;;
18780;SDS011;9519;51.890;8.970;2022-12-18T01:04:00;25.97;;;15.53;;
18780;SDS011;9519;51.890;8.970;2022-12-18T01:09:03;28.87;;;16.43;;
18780;SDS011;9519;51.890;8.970;2022-12-18T01:14:07;28.87;;;15.97;;
18780;SDS011;9519;51.890;8.970;2022-12-18T01:19:12;27.77;;;16.37;;
18780;SDS011;9519;51.890;8.970;2022-12-18T01:24:14;28.50;;;16.23;;
18780;SDS011;9519;51.890;8.970;2022-12-18T01:29:18;29.43;;;16.10;;
18780;SDS011;9519;51.890;8.970;2022-12-18T01:34:20;31.00;;;17.07;;
18780;SDS011;9519;51.890;8.970;2022-12-18T01:39:22;30.00;;;15.80;;
18780;SDS011;9519;51.890;8.970;2022-12-18T01:50:07;34.20;;;17.03;;
18780;SDS011;9519;51.890;8.970;2022-12-18T01:55:17;27.87;;;16.27;;
18780;SDS011;9519;51.890;8.970;2022-12-18T02:00:24;25.73;;;15.70;;
18780;SDS011;9519;51.890;8.970;2022-12-18T02:05:31;28.53;;;15.97;;
18780;SDS011;9519;51.890;8.970;2022-12-18T02:10:46;27.40;;;16.37;;
18780;SDS011;9519;51.890;8.970;2022-12-18T02:16:02;28.23;;;16.40;;
18780;SDS011;9519;51.890;8.970;2022-12-18T02:21:15;26.87;;;15.50;;
18780;SDS011;9519;51.890;8.970;2022-12-18T02:26:33;27.40;;;15.53;;
18780;SDS011;9519;51.890;8.970;2022-12-18T02:31:43;27.30;;;15.17;;
18780;SDS011;9519;51.890;8.970;2022-12-18T02:36:52;31.80;;;16.17;;
18780;SDS011;9519;51.890;8.970;2022-12-18T02:41:58;27.70;;;15.17;;
18780;SDS011;9519;51.890;8.970;2022-12-18T02:47:08;28.03;;;16.43;;
18780;SDS011;9519;51.890;8.970;2022-12-18T02:52:20;26.83;;;15.13;;
18780;SDS011;9519;51.890;8.970;2022-12-18T02:57:39;27.80;;;15.57;;
18780;SDS011;9519;51.890;8.970;2022-12-18T03:02:48;30.00;;;15.77;;
18780;SDS011;9519;51.890;8.970;2022-12-18T03:08:00;26.90;;;15.53;;
18780;SDS011;9519;51.890;8.970;2022-12-18T03:13:10;30.30;;;15.10;;
18780;SDS011;9519;51.890;8.970;2022-12-18T03:18:18;28.77;;;15.27;;
18780;SDS011;9519;51.890;8.970;2022-12-18T03:23:27;27.83;;;15.50;;
18780;SDS011;9519;51.890;8.970;2022-12-18T03:28:38;27.53;;;14.57;;
18780;SDS011;9519;51.890;8.970;2022-12-18T03:33:47;28.43;;;15.60;;
18780;SDS011;9519;51.890;8.970;2022-12-18T03:38:57;27.23;;;16.00;;
18780;SDS011;9519;51.890;8.970;2022-12-18T03:44:02;31.67;;;16.67;;
18780;SDS011;9519;51.890;8.970;2022-12-18T03:49:14;24.83;;;14.80;;
18780;SDS011;9519;51.890;8.970;2022-12-18T03:54:26;27.67;;;15.23;;
18780;SDS011;9519;51.890;8.970;2022-12-18T03:59:33;23.60;;;14.93;;
18780;SDS011;9519;51.890;8.970;2022-12-18T04:04:37;26.73;;;15.47;;
18780;SDS011;9519;51.890;8.970;2022-12-18T04:09:41;25.93;;;14.70;;
18780;SDS011;9519;51.890;8.970;2022-12-18T04:14:46;25.93;;;14.90;;
18780;SDS011;9519;51.890;8.970;2022-12-18T04:19:48;24.77;;;14.60;;
18780;SDS011;9519;51.890;8.970;2022-12-18T04:24:50;29.57;;;16.43;;
18780;SDS011;9519;51.890;8.970;2022-12-18T04:29:54;27.37;;;15.10;;
18780;SDS011;9519;51.890;8.970;2022-12-18T04:34:56;25.47;;;14.70;;
18780;SDS011;9519;51.890;8.970;2022-12-18T04:39:58;25.30;;;13.63;;
18780;SDS011;9519;51.890;8.970;2022-12-18T04:45:02;25.40;;;14.57;;
18780;SDS011;9519;51.890;8.970;2022-12-18T04:50:05;26.93;;;15.50;;
18780;SDS011;9519;51.890;8.970;2022-12-18T04:55:08;27.07;;;15.20;;
18780;SDS011;9519;51.890;8.970;2022-12-18T05:00:13;26.13;;;15.10;;
18780;SDS011;9519;51.890;8.970;2022-12-18T05:05:16;27.00;;;14.67;;
18780;SDS011;9519;51.890;8.970;2022-12-18T05:10:18;25.50;;;15.73;;
18780;SDS011;9519;51.890;8.970;2022-12-18T05:15:22;30.13;;;15.43;;
18780;SDS011;9519;51.890;8.970;2022-12-18T05:20:25;25.60;;;15.40;;
18780;SDS011;9519;51.890;8.970;2022-12-18T05:25:29;33.63;;;15.73;;
18780;SDS011;9519;51.890;8.970;2022-12-18T05:30:32;27.80;;;15.87;;
18780;SDS011;9519;51.890;8.970;2022-12-18T05:35:35;24.80;;;16.23;;
18780;SDS011;9519;51.890;8.970;2022-12-18T05:40:37;26.53;;;16.13;;
18780;SDS011;9519;51.890;8.970;2022-12-18T05:45:44;29.40;;;16.03;;
18780;SDS011;9519;51.890;8.970;2022-12-18T05:50:46;25.43;;;14.63;;
18780;SDS011;9519;51.890;8.970;2022-12-18T05:55:50;26.13;;;14.73;;
18780;SDS011;9519;51.890;8.970;2022-12-18T06:00:54;30.10;;;15.60;;
18780;SDS011;9519;51.890;8.970;2022-12-18T06:05:56;28.87;;;15.83;;
18780;SDS011;9519;51.890;8.970;2022-12-18T06:10:58;26.13;;;15.57;;
18780;SDS011;9519;51.890;8.970;2022-12-18T06:16:03;22.03;;;13.77;;
18780;SDS011;9519;51.890;8.970;2022-12-18T06:21:06;28.70;;;14.90;;
18780;SDS011;9519;51.890;8.970;2022-12-18T06:26:09;27.33;;;16.13;;
18780;SDS011;9519;51.890;8.970;2022-12-18T06:31:15;26.30;;;15.57;;
18780;SDS011;9519;51.890;8.970;2022-12-18T06:36:17;24.83;;;13.80;;
18780;SDS011;9519;51.890;8.970;2022-12-18T06:41:20;30.40;;;14.60;;
18780;SDS011;9519;51.890;8.970;2022-12-18T06:46:24;26.00;;;15.03;;
18780;SDS011;9519;51.890;8.970;2022-12-18T06:51:26;30.10;;;17.07;;
18780;SDS011;9519;51.890;8.970;2022-12-18T06:56:28;27.00;;;15.43;;
18780;SDS011;9519;51.890;8.970;2022-12-18T07:01:32;28.23;;;15.17;;
18780;SDS011;9519;51.890;8.970;2022-12-18T07:06:34;25.33;;;14.57;;
18780;SDS011;9519;51.890;8.970;2022-12-18T07:11:37;29.67;;;16.10;;
18780;SDS011;9519;51.890;8.970;2022-12-18T07:16:41;24.37;;;13.57;;
18780;SDS011;9519;51.890;8.970;2022-12-18T07:21:43;28.20;;;16.90;;
18780;SDS011;9519;51.890;8.970;2022-12-18T07:26:45;27.57;;;16.67;;
18780;SDS011;9519;51.890;8.970;2022-12-18T07:31:49;28.97;;;14.93;;
18780;SDS011;9519;51.890;8.970;2022-12-18T07:36:51;26.10;;;14.77;;
18780;SDS011;9519;51.890;8.970;2022-12-18T07:41:53;23.10;;;13.63;;
18780;SDS011;9519;51.890;8.970;2022-12-18T07:47:11;24.30;;;14.23;;
18780;SDS011;9519;51.890;8.970;2022-12-18T07:52:13;25.23;;;14.47;;
18780;SDS011;9519;51.890;8.970;2022-12-18T07:57:17;28.20;;;14.80;;
18780;SDS011;9519;51.890;8.970;2022-12-18T08:02:21;27.00;;;15.17;;
18780;SDS011;9519;51.890;8.970;2022-12-18T08:07:23;25.30;;;14.03;;
18780;SDS011;9519;51.890;8.970;2022-12-18T08:12:25;26.33;;;14.80;;
18780;SDS011;9519;51.890;8.970;2022-12-18T08:17:29;27.33;;;15.60;;
18780;SDS011;9519;51.890;8.970;2022-12-18T08:22:33;27.93;;;15.10;;
18780;SDS011;9519;51.890;8.970;2022-12-18T08:27:36;24.10;;;14.53;;
18780;SDS011;9519;51.890;8.970;2022-12-18T08:32:40;24.47;;;15.27;;
18780;SDS011;9519;51.890;8.970;2022-12-18T08:37:42;29.80;;;16.43;;
18780;SDS011;9519;51.890;8.970;2022-12-18T08:42:44;25.67;;;14.83;;
18780;SDS011;9519;51.890;8.970;2022-12-18T08:48:06;27.77;;;16.67;;
18780;SDS011;9519;51.890;8.970;2022-12-18T08:53:08;28.47;;;15.97;;
18780;SDS011;9519;51.890;8.970;2022-12-18T08:58:10;28.23;;;17.63;;
18780;SDS011;9519;51.890;8.970;2022-12-18T09:03:14;24.87;;;14.97;;
18780;SDS011;9519;51.890;8.970;2022-12-18T09:08:19;25.10;;;15.00;;
18780;SDS011;9519;51.890;8.970;2022-12-18T09:13:21;27.67;;;14.90;;
18780;SDS011;9519;51.890;8.970;2022-12-18T09:18:25;22.80;;;13.00;;
18780;SDS011;9519;51.890;8.970;2022-12-18T09:23:27;22.00;;;13.93;;
18780;SDS011;9519;51.890;8.970;2022-12-18T09:28:29;27.00;;;14.30;;
18780;SDS011;9519;51.890;8.970;2022-12-18T09:33:33;23.20;;;13.60;;
18780;SDS011;9519;51.890;8.970;2022-12-18T09:38:36;22.40;;;13.70;;
18780;SDS011;9519;51.890;8.970;2022-12-18T09:43:41;22.23;;;13.00;;
18780;SDS011;9519;51.890;8.970;2022-12-18T09:48:49;23.17;;;13.43;;
18780;SDS011;9519;51.890;8.970;2022-12-18T09:53:58;27.57;;;16.07;;
18780;SDS011;9519;51.890;8.970;2022-12-18T09:59:05;22.33;;;13.27;;
18780;SDS011;9519;51.890;8.970;2022-12-18T10:04:17;26.27;;;15.50;;
18780;SDS011;9519;51.890;8.970;2022-12-18T10:09:22;23.07;;;13.93;;
18780;SDS011;9519;51.890;8.970;2022-12-18T10:14:36;24.27;;;13.17;;
18780;SDS011;9519;51.890;8.970;2022-12-18T10:19:51;21.40;;;12.17;;
18780;SDS011;9519;51.890;8.970;2022-12-18T10:25:02;22.13;;;13.10;;
18780;SDS011;9519;51.890;8.970;2022-12-18T10:30:17;21.30;;;14.00;;
18780;SDS011;9519;51.890;8.970;2022-12-18T10:35:23;20.23;;;11.73;;
18780;SDS011;9519;51.890;8.970;2022-12-18T10:40:28;22.10;;;11.53;;
18780;SDS011;9519;51.890;8.970;2022-12-18T10:45:30;20.20;;;11.77;;
18780;SDS011;9519;51.890;8.970;2022-12-18T10:50:35;20.13;;;12.27;;
18780;SDS011;9519;51.890;8.970;2022-12-18T10:55:39;20.23;;;11.13;;
18780;SDS011;9519;51.890;8.970;2022-12-18T11:00:51;20.80;;;12.17;;
18780;SDS011;9519;51.890;8.970;2022-12-18T11:06:11;16.50;;;10.50;;
18780;SDS011;9519;51.890;8.970;2022-12-18T11:11:18;21.60;;;13.03;;
18780;SDS011;9519;51.890;8.970;2022-12-18T11:16:22;20.83;;;12.10;;
18780;SDS011;9519;51.890;8.970;2022-12-18T11:21:26;23.27;;;12.40;;
18780;SDS011;9519;51.890;8.970;2022-12-18T11:26:33;16.50;;;10.27;;
18780;SDS011;9519;51.890;8.970;2022-12-18T11:31:37;19.50;;;11.47;;
18780;SDS011;9519;51.890;8.970;2022-12-18T11:36:42;17.80;;;10.93;;
18780;SDS011;9519;51.890;8.970;2022-12-18T11:41:49;17.43;;;10.53;;
18780;SDS011;9519;51.890;8.970;2022-12-18T11:47:16;16.80;;;10.30;;
18780;SDS011;9519;51.890;8.970;2022-12-18T11:52:31;19.93;;;10.60;;
18780;SDS011;9519;51.890;8.970;2022-12-18T11:57:39;21.23;;;11.83;;
18780;SDS011;9519;51.890;8.970;2022-12-18T12:03:04;23.40;;;12.53;;
18780;SDS011;9519;51.890;8.970;2022-12-18T12:08:45;20.77;;;11.17;;
18780;SDS011;9519;51.890;8.970;2022-12-18T12:14:12;32.27;;;16.30;;
18780;SDS011;9519;51.890;8.970;2022-12-18T12:19:45;44.53;;;18.20;;
18780;SDS011;9519;51.890;8.970;2022-12-18T12:25:09;21.80;;;11.70;;
18780;SDS011;9519;51.890;8.970;2022-12-18T12:30:29;17.90;;;11.30;;
18780;SDS011;9519;51.890;8.970;2022-12-18T12:35:44;17.00;;;9.60;;
18780;SDS011;9519;51.890;8.970;2022-12-18T12:40:58;17.57;;;10.77;;
18780;SDS011;9519;51.890;8.970;2022-12-18T12:46:05;16.93;;;9.93;;
18780;SDS011;9519;51.890;8.970;2022-12-18T12:51:12;16.60;;;9.17;;
18780;SDS011;9519;51.890;8.970;2022-12-18T12:56:20;16.27;;;9.40;;
18780;SDS011;9519;51.890;8.970;2022-12-18T13:01:25;17.87;;;9.33;;
18780;SDS011;9519;51.890;8.970;2022-12-18T13:06:40;15.70;;;9.47;;
18780;SDS011;9519;51.890;8.970;2022-12-18T13:11:50;13.03;;;8.60;;
18780;SDS011;9519;51.890;8.970;2022-12-18T13:17:16;11.87;;;8.07;;
18780;SDS011;9519;51.890;8.970;2022-12-18T13:22:33;15.83;;;7.43;;
18780;SDS011;9519;51.890;8.970;2022-12-18T13:27:46;14.03;;;7.93;;
18780;SDS011;9519;51.890;8.970;2022-12-18T13:44:36;13.83;;;8.83;;
18780;SDS011;9519;51.890;8.970;2022-12-18T13:49:41;13.67;;;8.03;;
18780;SDS011;9519;51.890;8.970;2022-12-18T13:54:47;15.37;;;8.57;;
18780;SDS011;9519;51.890;8.970;2022-12-18T13:59:54;13.23;;;7.53;;
18780;SDS011;9519;51.890;8.970;2022-12-18T14:04:56;13.63;;;8.30;;
18780;SDS011;9519;51.890;8.970;2022-12-18T14:09:59;12.40;;;8.07;;
18780;SDS011;9519;51.890;8.970;2022-12-18T14:15:05;16.03;;;8.93;;
18780;SDS011;9519;51.890;8.970;2022-12-18T14:20:21;16.20;;;9.90;;
18780;SDS011;9519;51.890;8.970;2022-12-18T14:25:26;14.37;;;8.53;;
18780;SDS011;9519;51.890;8.970;2022-12-18T14:30:32;14.33;;;7.83;;
18780;SDS011;9519;51.890;8.970;2022-12-18T14:35:39;16.60;;;9.00;;
18780;SDS011;9519;51.890;8.970;2022-12-18T14:40:43;11.93;;;7.77;;
18780;SDS011;9519;51.890;8.970;2022-12-18T14:45:47;15.10;;;7.77;;
18780;SDS011;9519;51.890;8.970;2022-12-18T14:50:54;13.17;;;8.47;;
18780;SDS011;9519;51.890;8.970;2022-12-18T14:56:02;12.70;;;6.53;;
18780;SDS011;9519;51.890;8.970;2022-12-18T15:01:21;12.10;;;6.97;;
18780;SDS011;9519;51.890;8.970;2022-12-18T15:06:28;11.93;;;7.13;;
18780;SDS011;9519;51.890;8.970;2022-12-18T15:11:44;14.03;;;7.53;;
18780;SDS011;9519;51.890;8.970;2022-12-18T15:16:51;14.60;;;8.00;;
18780;SDS011;9519;51.890;8.970;2022-12-18T15:21:54;16.43;;;10.37;;
18780;SDS011;9519;51.890;8.970;2022-12-18T15:26:56;14.63;;;8.47;;
18780;SDS011;9519;51.890;8.970;2022-12-18T15:32:01;14.97;;;8.27;;
18780;SDS011;9519;51.890;8.970;2022-12-18T15:37:06;15.13;;;8.40;;
18780;SDS011;9519;51.890;8.970;2022-12-18T15:42:09;13.80;;;7.53;;
18780;SDS011;9519;51.890;8.970;2022-12-18T15:47:30;15.23;;;9.13;;
18780;SDS011;9519;51.890;8.970;2022-12-18T15:52:35;14.30;;;9.27;;
18780;SDS011;9519;51.890;8.970;2022-12-18T15:57:42;16.37;;;8.73;;
18780;SDS011;9519;51.890;8.970;2022-12-18T16:02:45;15.07;;;9.13;;
18780;SDS011;9519;51.890;8.970;2022-12-18T16:07:47;16.53;;;9.70;;
18780;SDS011;9519;51.890;8.970;2022-12-18T16:12:49;15.73;;;9.17;;
18780;SDS011;9519;51.890;8.970;2022-12-18T16:17:53;14.93;;;9.67;;
18780;SDS011;9519;51.890;8.970;2022-12-18T16:22:55;14.60;;;9.23;;
18780;SDS011;9519;51.890;8.970;2022-12-18T16:27:58;19.07;;;10.53;;
18780;SDS011;9519;51.890;8.970;2022-12-18T16:33:01;17.27;;;9.50;;
18780;SDS011;9519;51.890;8.970;2022-12-18T16:38:03;17.67;;;10.30;;
18780;SDS011;9519;51.890;8.970;2022-12-18T16:43:06;15.33;;;9.93;;
18780;SDS011;9519;51.890;8.970;2022-12-18T16:48:10;17.43;;;9.93;;
18780;SDS011;9519;51.890;8.970;2022-12-18T16:53:12;16.63;;;9.90;;
18780;SDS011;9519;51.890;8.970;2022-12-18T16:58:14;17.10;;;9.90;;
18780;SDS011;9519;51.890;8.970;2022-12-18T17:03:18;16.47;;;10.17;;
18780;SDS011;9519;51.890;8.970;2022-12-18T17:08:20;18.43;;;9.77;;
18780;SDS011;9519;51.890;8.970;2022-12-18T17:13:25;16.47;;;9.80;;
18780;SDS011;9519;51.890;8.970;2022-12-18T17:18:28;17.20;;;10.03;;
18780;SDS011;9519;51.890;8.970;2022-12-18T17:23:31;17.90;;;10.40;;
18780;SDS011;9519;51.890;8.970;2022-12-18T17:28:33;19.10;;;10.97;;
18780;SDS011;9519;51.890;8.970;2022-12-18T17:33:37;16.60;;;10.33;;
18780;SDS011;9519;51.890;8.970;2022-12-18T17:38:40;18.10;;;10.73;;
18780;SDS011;9519;51.890;8.970;2022-12-18T17:43:44;19.43;;;11.60;;
18780;SDS011;9519;51.890;8.970;2022-12-18T17:48:55;18.77;;;11.43;;
18780;SDS011;9519;51.890;8.970;2022-12-18T17:53:58;17.43;;;10.93;;
18780;SDS011;9519;51.890;8.970;2022-12-18T17:59:00;18.87;;;11.07;;
18780;SDS011;9519;51.890;8.970;2022-12-18T18:04:04;21.77;;;12.00;;
18780;SDS011;9519;51.890;8.970;2022-12-18T18:09:06;22.10;;;12.67;;
18780;SDS011;9519;51.890;8.970;2022-12-18T18:14:11;21.03;;;12.13;;
18780;SDS011;9519;51.890;8.970;2022-12-18T18:19:19;21.90;;;12.60;;
18780;SDS011;9519;51.890;8.970;2022-12-18T18:24:24;20.87;;;12.20;;
18780;SDS011;9519;51.890;8.970;2022-12-18T18:29:28;23.17;;;13.40;;
18780;SDS011;9519;51.890;8.970;2022-12-18T18:34:32;21.23;;;12.83;;
18780;SDS011;9519;51.890;8.970;2022-12-18T18:39:34;25.07;;;14.30;;
18780;SDS011;9519;51.890;8.970;2022-12-18T18:44:36;24.47;;;14.27;;
18780;SDS011;9519;51.890;8.970;2022-12-18T18:49:40;23.77;;;13.17;;
18780;SDS011;9519;51.890;8.970;2022-12-18T18:54:42;24.43;;;14.47;;
18780;SDS011;9519;51.890;8.970;2022-12-18T18:59:46;26.77;;;14.83;;
18780;SDS011;9519;51.890;8.970;2022-12-18T19:04:50;23.33;;;13.50;;
18780;SDS011;9519;51.890;8.970;2022-12-18T19:09:52;24.03;;;14.27;;
18780;SDS011;9519;51.890;8.970;2022-12-18T19:14:54;38.90;;;18.63;;
18780;SDS011;9519;51.890;8.970;2022-12-18T19:19:58;28.20;;;15.30;;
18780;SDS011;9519;51.890;8.970;2022-12-18T19:25:00;25.47;;;13.67;;
18780;SDS011;9519;51.890;8.970;2022-12-18T19:30:02;27.17;;;15.40;;
18780;SDS011;9519;51.890;8.970;2022-12-18T19:35:08;26.20;;;14.37;;
18780;SDS011;9519;51.890;8.970;2022-12-18T19:40:10;28.60;;;15.33;;
18780;SDS011;9519;51.890;8.970;2022-12-18T19:45:13;26.70;;;15.37;;
18780;SDS011;9519;51.890;8.970;2022-12-18T19:50:16;29.60;;;16.50;;
18780;SDS011;9519;51.890;8.970;2022-12-18T19:55:18;28.67;;;15.47;;
18780;SDS011;9519;51.890;8.970;2022-12-18T20:00:21;31.30;;;16.00;;
18780;SDS011;9519;51.890;8.970;2022-12-18T20:05:25;28.73;;;16.60;;
18780;SDS011;9519;51.890;8.970;2022-12-18T20:10:27;38.13;;;17.17;;
18780;SDS011;9519;51.890;8.970;2022-12-18T20:15:31;28.47;;;16.53;;
18780;SDS011;9519;51.890;8.970;2022-12-18T20:20:34;27.87;;;17.00;;
18780;SDS011;9519;51.890;8.970;2022-12-18T20:25:37;31.23;;;17.30;;
18780;SDS011;9519;51.890;8.970;2022-12-18T20:30:40;31.10;;;17.30;;
18780;SDS011;9519;51.890;8.970;2022-12-18T20:35:43;31.47;;;18.23;;
18780;SDS011;9519;51.890;8.970;2022-12-18T20:40:45;30.63;;;17.53;;
18780;SDS011;9519;51.890;8.970;2022-12-18T20:45:48;31.80;;;17.80;;
18780;SDS011;9519;51.890;8.970;2022-12-18T20:50:56;34.77;;;18.80;;
18780;SDS011;9519;51.890;8.970;2022-12-18T20:56:00;32.60;;;18.50;;
18780;SDS011;9519;51.890;8.970;2022-12-18T21:01:07;30.10;;;17.90;;
18780;SDS011;9519;51.890;8.970;2022-12-18T21:06:13;36.57;;;18.50;;
18780;SDS011;9519;51.890;8.970;2022-12-18T21:11:24;32.50;;;18.13;;
18780;SDS011;9519;51.890;8.970;2022-12-18T21:16:46;36.67;;;19.40;;
18780;SDS011;9519;51.890;8.970;2022-12-18T21:21:50;36.30;;;19.40;;
18780;SDS011;9519;51.890;8.970;2022-12-18T21:26:54;38.20;;;20.90;;
18780;SDS011;9519;51.890;8.970;2022-12-18T21:31:56;36.73;;;20.50;;
18780;SDS011;9519;51.890;8.970;2022-12-18T21:36:59;34.27;;;19.67;;
18780;SDS011;9519;51.890;8.970;2022-12-18T21:42:03;35.00;;;19.93;;
18780;SDS011;9519;51.890;8.970;2022-12-18T21:47:24;37.73;;;20.57;;
18780;SDS011;9519;51.890;8.970;2022-12-18T21:52:28;37.43;;;21.10;;
18780;SDS011;9519;51.890;8.970;2022-12-18T21:57:30;35.87;;;20.67;;
18780;SDS011;9519;51.890;8.970;2022-12-18T22:02:32;34.63;;;18.80;;
18780;SDS011;9519;51.890;8.970;2022-12-18T22:07:36;38.93;;;20.43;;
18780;SDS011;9519;51.890;8.970;2022-12-18T22:12:38;37.60;;;19.97;;
18780;SDS011;9519;51.890;8.970;2022-12-18T22:17:40;38.40;;;21.90;;
18780;SDS011;9519;51.890;8.970;2022-12-18T22:22:44;34.10;;;19.63;;
18780;SDS011;9519;51.890;8.970;2022-12-18T22:27:46;40.83;;;21.40;;
18780;SDS011;9519;51.890;8.970;2022-12-18T22:33:02;37.40;;;21.13;;
18780;SDS011;9519;51.890;8.970;2022-12-18T22:38:06;39.73;;;21.00;;
18780;SDS011;9519;51.890;8.970;2022-12-18T22:43:08;40.93;;;21.43;;
18780;SDS011;9519;51.890;8.970;2022-12-18T22:48:10;43.57;;;23.63;;
18780;SDS011;9519;51.890;8.970;2022-12-18T22:53:14;40.77;;;21.90;;
18780;SDS011;9519;51.890;8.970;2022-12-18T22:58:16;45.33;;;22.83;;
18780;SDS011;9519;51.890;8.970;2022-12-18T23:03:18;42.17;;;22.57;;
18780;SDS011;9519;51.890;8.970;2022-12-18T23:08:22;43.60;;;23.27;;
18780;SDS011;9519;51.890;8.970;2022-12-18T23:13:24;43.73;;;22.87;;
18780;SDS011;9519;51.890;8.970;2022-12-18T23:18:28;42.77;;;22.03;;
18780;SDS011;9519;51.890;8.970;2022-12-18T23:23:32;43.07;;;21.87;;
18780;SDS011;9519;51.890;8.970;2022-12-18T23:28:35;40.63;;;23.37;;
18780;SDS011;9519;51.890;8.970;2022-12-18T23:33:37;42.30;;;23.40;;
18780;SDS011;9519;51.890;8.970;2022-12-18T23:38:41;40.33;;;22.83;;
18780;SDS011;9519;51.890;8.970;2022-12-18T23:43:48;43.77;;;22.40;;
18780;SDS011;9519;51.890;8.970;2022-12-18T23:48:51;44.17;;;23.57;;
18780;SDS011;9519;51.890;8.970;2022-12-18T23:53:56;40.53;;;22.57;;
18780;SDS011;9519;51.890;8.970;2022-12-18T23:59:00;42.20;;;24.73;;
